createdAt,value
2017-10-27T00:00:09.005Z,14.1
2017-10-27T00:00:49.545Z,14.21
2017-10-27T00:01:30.073Z,14.15
2017-10-27T00:02:10.630Z,14.12
2017-10-27T00:02:51.176Z,14.07
2017-10-27T00:03:31.713Z,14.15
2017-10-27T00:04:12.283Z,14.12
2017-10-27T00:04:52.812Z,14.12
2017-10-27T00:05:33.353Z,14.14
2017-10-27T00:06:13.888Z,14.15
2017-10-27T00:06:54.416Z,14.12
2017-10-27T00:07:34.949Z,14.17
2017-10-27T00:08:15.488Z,14.07
2017-10-27T00:08:56.030Z,14.15
2017-10-27T00:09:36.559Z,14.07
2017-10-27T00:10:17.094Z,14.06
2017-10-27T00:10:57.634Z,14.17
2017-10-27T00:11:38.173Z,14.12
2017-10-27T00:12:18.705Z,14.12
2017-10-27T00:12:59.241Z,14.12
2017-10-27T00:13:39.783Z,14.14
2017-10-27T00:14:20.318Z,14.06
2017-10-27T00:15:00.867Z,14.14
2017-10-27T00:15:41.402Z,14.14
2017-10-27T00:16:21.975Z,14.09
2017-10-27T00:17:02.501Z,14.07
2017-10-27T00:17:43.038Z,14.14
2017-10-27T00:18:23.572Z,14.15
2017-10-27T00:19:04.109Z,14.04
2017-10-27T00:19:44.646Z,14.03
2017-10-27T00:20:25.189Z,14.04
2017-10-27T00:21:05.725Z,14.09
2017-10-27T00:21:46.266Z,14.02
2017-10-27T00:22:26.800Z,14.06
2017-10-27T00:23:07.335Z,14
2017-10-27T00:23:47.867Z,13.99
2017-10-27T00:24:28.404Z,14.03
2017-10-27T00:25:08.946Z,14.07
2017-10-27T00:25:49.481Z,14.1
2017-10-27T00:26:30.021Z,14.02
2017-10-27T00:27:10.556Z,14.03
2017-10-27T00:27:51.087Z,14.03
2017-10-27T00:28:31.618Z,14.04
2017-10-27T00:29:12.155Z,14.03
2017-10-27T00:29:52.689Z,14.06
2017-10-27T00:30:33.218Z,14.03
2017-10-27T00:31:13.751Z,14.02
2017-10-27T00:31:54.285Z,14.06
2017-10-27T00:32:34.831Z,14.06
2017-10-27T00:33:15.358Z,14.03
2017-10-27T00:33:55.897Z,14.09
2017-10-27T00:34:36.432Z,14.06
2017-10-27T00:35:16.965Z,14.02
2017-10-27T00:35:57.502Z,14.04
2017-10-27T00:36:38.034Z,14.03
2017-10-27T00:37:18.573Z,14.02
2017-10-27T00:37:59.112Z,14.02
2017-10-27T00:38:39.653Z,14.03
2017-10-27T00:39:20.188Z,14.03
2017-10-27T00:40:00.731Z,14.02
2017-10-27T00:40:41.273Z,14.14
2017-10-27T00:41:21.806Z,14.1
2017-10-27T00:42:02.335Z,14.04
2017-10-27T00:42:42.879Z,14.1
2017-10-27T00:43:23.420Z,14.04
2017-10-27T00:44:03.958Z,14.1
2017-10-27T00:44:44.506Z,14.02
2017-10-27T00:45:25.029Z,14.04
2017-10-27T00:46:05.564Z,14.03
2017-10-27T00:46:46.097Z,14.02
2017-10-27T00:47:26.637Z,14.03
2017-10-27T00:48:07.172Z,13.99
2017-10-27T00:48:47.705Z,14.03
2017-10-27T00:49:28.243Z,14.02
2017-10-27T00:50:08.784Z,14.02
2017-10-27T00:50:49.319Z,13.97
2017-10-27T00:51:29.854Z,13.99
2017-10-27T00:52:10.386Z,13.96
2017-10-27T00:52:50.926Z,13.92
2017-10-27T00:53:31.465Z,13.91
2017-10-27T00:54:12.000Z,13.91
2017-10-27T00:54:52.538Z,13.96
2017-10-27T00:55:33.069Z,13.96
2017-10-27T00:56:13.604Z,13.85
2017-10-27T00:56:54.139Z,13.79
2017-10-27T00:57:34.679Z,13.84
2017-10-27T00:58:15.226Z,13.87
2017-10-27T00:58:55.748Z,13.88
2017-10-27T00:59:36.282Z,13.89
2017-10-27T01:00:16.820Z,13.88
2017-10-27T01:00:57.352Z,13.87
2017-10-27T01:01:37.894Z,13.88
2017-10-27T01:02:18.475Z,13.92
2017-10-27T01:02:59.044Z,13.84
2017-10-27T01:03:39.615Z,13.87
2017-10-27T01:04:20.261Z,13.79
2017-10-27T01:05:00.817Z,13.79
2017-10-27T01:05:41.338Z,13.79
2017-10-27T01:06:21.881Z,13.77
2017-10-27T01:07:02.406Z,13.82
2017-10-27T01:07:42.945Z,13.82
2017-10-27T01:08:23.484Z,13.69
2017-10-27T01:09:04.024Z,13.82
2017-10-27T01:09:44.561Z,13.79
2017-10-27T01:10:25.097Z,13.81
2017-10-27T01:11:05.629Z,13.85
2017-10-27T01:11:46.163Z,13.71
2017-10-27T01:12:26.699Z,13.78
2017-10-27T01:13:07.231Z,13.73
2017-10-27T01:13:47.768Z,13.71
2017-10-27T01:14:28.302Z,13.67
2017-10-27T01:15:08.831Z,13.67
2017-10-27T01:15:49.363Z,13.66
2017-10-27T01:16:29.899Z,13.71
2017-10-27T01:17:10.467Z,13.63
2017-10-27T01:17:51.002Z,13.69
2017-10-27T01:18:31.541Z,13.67
2017-10-27T01:19:12.081Z,13.66
2017-10-27T01:19:52.618Z,13.69
2017-10-27T01:20:33.154Z,13.75
2017-10-27T01:21:13.686Z,13.69
2017-10-27T01:21:54.224Z,13.69
2017-10-27T01:22:34.763Z,13.66
2017-10-27T01:23:15.298Z,13.69
2017-10-27T01:23:55.828Z,13.64
2017-10-27T01:24:36.357Z,13.62
2017-10-27T01:25:16.890Z,13.57
2017-10-27T01:25:57.425Z,13.51
2017-10-27T01:26:37.959Z,13.52
2017-10-27T01:27:18.499Z,13.57
2017-10-27T01:27:59.031Z,13.6
2017-10-27T01:28:39.574Z,13.54
2017-10-27T01:29:20.104Z,13.57
2017-10-27T01:30:00.639Z,13.57
2017-10-27T01:30:41.172Z,13.57
2017-10-27T01:31:21.708Z,13.57
2017-10-27T01:32:02.239Z,13.57
2017-10-27T01:32:42.779Z,13.57
2017-10-27T01:33:23.314Z,13.57
2017-10-27T01:34:03.849Z,13.49
2017-10-27T01:34:44.379Z,13.51
2017-10-27T01:35:24.903Z,13.45
2017-10-27T01:36:05.438Z,13.38
2017-10-27T01:36:45.983Z,13.46
2017-10-27T01:37:26.522Z,13.42
2017-10-27T01:38:07.060Z,13.39
2017-10-27T01:38:47.592Z,13.46
2017-10-27T01:39:28.127Z,13.48
2017-10-27T01:40:08.658Z,13.44
2017-10-27T01:40:49.197Z,13.44
2017-10-27T01:41:29.735Z,13.42
2017-10-27T01:42:10.276Z,13.39
2017-10-27T01:42:50.804Z,13.48
2017-10-27T01:43:31.343Z,13.41
2017-10-27T01:44:11.877Z,13.41
2017-10-27T01:44:52.406Z,13.42
2017-10-27T01:45:32.942Z,13.41
2017-10-27T01:46:13.480Z,13.51
2017-10-27T01:46:54.022Z,13.41
2017-10-27T01:47:34.544Z,13.39
2017-10-27T01:48:15.074Z,13.39
2017-10-27T01:48:55.608Z,13.33
2017-10-27T01:49:36.166Z,13.33
2017-10-27T01:50:16.698Z,13.44
2017-10-27T01:50:57.217Z,13.32
2017-10-27T01:51:37.760Z,13.29
2017-10-27T01:52:18.291Z,13.26
2017-10-27T01:52:58.837Z,13.25
2017-10-27T01:53:39.370Z,13.32
2017-10-27T01:54:19.906Z,13.28
2017-10-27T01:55:00.438Z,13.26
2017-10-27T01:55:40.981Z,13.26
2017-10-27T01:56:21.507Z,13.26
2017-10-27T01:57:02.119Z,13.25
2017-10-27T01:57:42.644Z,13.23
2017-10-27T01:58:23.178Z,13.28
2017-10-27T01:59:03.718Z,13.25
2017-10-27T01:59:44.258Z,13.28
2017-10-27T02:00:24.796Z,13.29
2017-10-27T02:01:05.336Z,13.28
2017-10-27T02:01:45.878Z,13.29
2017-10-27T02:02:26.416Z,13.28
2017-10-27T02:03:06.955Z,13.26
2017-10-27T02:03:47.494Z,13.29
2017-10-27T02:04:28.022Z,13.28
2017-10-27T02:05:08.563Z,13.28
2017-10-27T02:05:49.108Z,13.22
2017-10-27T02:06:29.635Z,13.32
2017-10-27T02:07:10.181Z,13.26
2017-10-27T02:07:50.715Z,13.29
2017-10-27T02:08:31.249Z,13.26
2017-10-27T02:09:11.786Z,13.23
2017-10-27T02:09:52.325Z,13.28
2017-10-27T02:10:32.859Z,13.26
2017-10-27T02:11:13.412Z,13.26
2017-10-27T02:11:53.934Z,13.28
2017-10-27T02:12:34.472Z,13.28
2017-10-27T02:13:15.007Z,13.3
2017-10-27T02:13:55.531Z,13.28
2017-10-27T02:14:36.071Z,13.3
2017-10-27T02:15:16.602Z,13.28
2017-10-27T02:15:57.162Z,13.29
2017-10-27T02:16:37.698Z,13.28
2017-10-27T02:17:18.241Z,13.3
2017-10-27T02:17:58.779Z,13.29
2017-10-27T02:18:39.320Z,13.28
2017-10-27T02:19:19.855Z,13.26
2017-10-27T02:20:00.383Z,13.26
2017-10-27T02:20:40.917Z,13.26
2017-10-27T02:21:21.454Z,13.3
2017-10-27T02:22:01.993Z,13.17
2017-10-27T02:22:42.532Z,13.28
2017-10-27T02:23:23.073Z,13.15
2017-10-27T02:24:03.594Z,13.17
2017-10-27T02:24:44.128Z,13.17
2017-10-27T02:25:24.662Z,13.23
2017-10-27T02:26:05.197Z,13.14
2017-10-27T02:26:45.732Z,13.12
2017-10-27T02:27:26.281Z,13.23
2017-10-27T02:28:06.818Z,13.15
2017-10-27T02:28:47.353Z,13.15
2017-10-27T02:29:27.886Z,13.15
2017-10-27T02:30:08.421Z,13.19
2017-10-27T02:30:48.959Z,13.11
2017-10-27T02:31:29.492Z,13.19
2017-10-27T02:32:10.028Z,13.15
2017-10-27T02:32:50.565Z,13.11
2017-10-27T02:33:31.137Z,13.1
2017-10-27T02:34:11.676Z,13.1
2017-10-27T02:34:52.208Z,13.04
2017-10-27T02:35:32.744Z,12.97
2017-10-27T02:36:13.476Z,13
2017-10-27T02:36:54.013Z,12.97
2017-10-27T02:37:34.572Z,12.96
2017-10-27T02:38:15.147Z,12.93
2017-10-27T02:38:55.695Z,12.93
2017-10-27T02:39:36.265Z,12.95
2017-10-27T02:40:16.797Z,12.86
2017-10-27T02:40:57.337Z,12.86
2017-10-27T02:41:37.871Z,12.89
2017-10-27T02:42:18.408Z,12.82
2017-10-27T02:42:58.947Z,12.82
2017-10-27T02:43:39.482Z,12.77
2017-10-27T02:44:20.015Z,12.67
2017-10-27T02:45:00.548Z,12.64
2017-10-27T02:45:41.085Z,12.68
2017-10-27T02:46:21.623Z,12.68
2017-10-27T02:47:02.165Z,12.65
2017-10-27T02:47:42.699Z,12.78
2017-10-27T02:48:23.234Z,12.82
2017-10-27T02:49:03.771Z,12.68
2017-10-27T02:49:44.312Z,12.79
2017-10-27T02:50:24.845Z,12.75
2017-10-27T02:51:05.377Z,12.71
2017-10-27T02:51:45.903Z,12.77
2017-10-27T02:52:26.445Z,12.7
2017-10-27T02:53:06.983Z,12.68
2017-10-27T02:53:47.516Z,12.64
2017-10-27T02:54:28.054Z,12.7
2017-10-27T02:55:08.588Z,12.68
2017-10-27T02:55:49.130Z,12.67
2017-10-27T02:56:29.666Z,12.6
2017-10-27T02:57:10.231Z,12.59
2017-10-27T02:57:50.764Z,12.52
2017-10-27T02:58:31.296Z,12.54
2017-10-27T02:59:11.831Z,12.47
2017-10-27T02:59:52.363Z,12.45
2017-10-27T03:00:32.915Z,12.42
2017-10-27T03:01:13.437Z,12.45
2017-10-27T03:01:53.972Z,12.42
2017-10-27T03:02:34.518Z,12.42
2017-10-27T03:03:15.047Z,12.35
2017-10-27T03:03:55.580Z,12.35
2017-10-27T03:04:36.118Z,12.35
2017-10-27T03:05:16.688Z,12.34
2017-10-27T03:05:57.220Z,12.31
2017-10-27T03:06:37.746Z,12.34
2017-10-27T03:07:18.276Z,12.31
2017-10-27T03:07:58.817Z,12.32
2017-10-27T03:08:39.358Z,12.34
2017-10-27T03:09:19.888Z,12.35
2017-10-27T03:10:00.425Z,12.35
2017-10-27T03:10:40.969Z,12.38
2017-10-27T03:11:21.492Z,12.28
2017-10-27T03:12:02.031Z,12.31
2017-10-27T03:12:42.571Z,12.29
2017-10-27T03:13:23.109Z,12.34
2017-10-27T03:14:03.643Z,12.34
2017-10-27T03:14:44.177Z,12.34
2017-10-27T03:15:24.716Z,12.32
2017-10-27T03:16:05.245Z,12.34
2017-10-27T03:16:45.777Z,12.34
2017-10-27T03:17:26.315Z,12.31
2017-10-27T03:18:06.845Z,12.34
2017-10-27T03:18:47.380Z,12.32
2017-10-27T03:19:27.919Z,12.38
2017-10-27T03:20:08.450Z,12.35
2017-10-27T03:20:48.986Z,12.35
2017-10-27T03:21:29.528Z,12.38
2017-10-27T03:22:10.062Z,12.41
2017-10-27T03:22:50.600Z,12.47
2017-10-27T03:23:31.132Z,12.5
2017-10-27T03:24:11.674Z,12.42
2017-10-27T03:24:52.238Z,12.41
2017-10-27T03:25:32.741Z,12.42
2017-10-27T03:26:13.289Z,12.42
2017-10-27T03:26:53.814Z,12.47
2017-10-27T03:27:34.342Z,12.46
2017-10-27T03:28:14.878Z,12.54
2017-10-27T03:28:55.417Z,12.53
2017-10-27T03:29:35.943Z,12.45
2017-10-27T03:30:16.486Z,12.45
2017-10-27T03:30:57.023Z,12.49
2017-10-27T03:31:37.561Z,12.56
2017-10-27T03:32:18.122Z,12.5
2017-10-27T03:32:58.632Z,12.52
2017-10-27T03:33:39.163Z,12.54
2017-10-27T03:34:19.698Z,12.53
2017-10-27T03:35:00.238Z,12.52
2017-10-27T03:35:40.772Z,12.6
2017-10-27T03:36:21.306Z,12.56
2017-10-27T03:37:01.849Z,12.53
2017-10-27T03:37:42.371Z,12.64
2017-10-27T03:38:22.904Z,12.62
2017-10-27T03:39:03.441Z,12.57
2017-10-27T03:39:43.987Z,12.6
2017-10-27T03:40:24.517Z,12.5
2017-10-27T03:41:05.048Z,12.53
2017-10-27T03:41:45.588Z,12.6
2017-10-27T03:42:26.125Z,12.52
2017-10-27T03:43:06.666Z,12.57
2017-10-27T03:43:47.204Z,12.52
2017-10-27T03:44:27.747Z,12.56
2017-10-27T03:45:08.279Z,12.54
2017-10-27T03:45:48.817Z,12.52
2017-10-27T03:46:29.353Z,12.65
2017-10-27T03:47:09.887Z,12.52
2017-10-27T03:47:50.443Z,12.59
2017-10-27T03:48:30.978Z,12.65
2017-10-27T03:49:11.517Z,12.6
2017-10-27T03:49:52.050Z,12.56
2017-10-27T03:50:32.594Z,12.67
2017-10-27T03:51:13.152Z,12.62
2017-10-27T03:51:53.685Z,12.53
2017-10-27T03:52:34.223Z,12.47
2017-10-27T03:53:14.748Z,12.54
2017-10-27T03:53:55.277Z,12.46
2017-10-27T03:54:35.818Z,12.47
2017-10-27T03:55:16.361Z,12.46
2017-10-27T03:55:56.890Z,12.45
2017-10-27T03:56:37.423Z,12.39
2017-10-27T03:57:17.959Z,12.32
2017-10-27T03:57:58.502Z,12.35
2017-10-27T03:58:39.030Z,12.37
2017-10-27T03:59:19.565Z,12.37
2017-10-27T04:00:00.090Z,12.31
2017-10-27T04:00:40.625Z,12.35
2017-10-27T04:01:21.160Z,12.32
2017-10-27T04:02:01.698Z,12.39
2017-10-27T04:02:42.234Z,12.39
2017-10-27T04:03:22.767Z,12.34
2017-10-27T04:04:03.313Z,12.31
2017-10-27T04:04:43.852Z,12.29
2017-10-27T04:05:24.385Z,12.31
2017-10-27T04:06:04.952Z,12.34
2017-10-27T04:06:45.443Z,12.38
2017-10-27T04:07:25.974Z,12.37
2017-10-27T04:08:06.514Z,12.34
2017-10-27T04:08:47.047Z,12.37
2017-10-27T04:09:27.611Z,12.35
2017-10-27T04:10:08.222Z,12.37
2017-10-27T04:10:48.798Z,12.34
2017-10-27T04:11:29.313Z,12.21
2017-10-27T04:12:09.844Z,12.31
2017-10-27T04:12:50.378Z,12.34
2017-10-27T04:13:30.913Z,12.27
2017-10-27T04:14:11.444Z,12.2
2017-10-27T04:14:51.981Z,12.28
2017-10-27T04:15:32.509Z,12.35
2017-10-27T04:16:13.047Z,12.37
2017-10-27T04:16:53.582Z,12.31
2017-10-27T04:17:34.114Z,12.35
2017-10-27T04:18:14.642Z,12.28
2017-10-27T04:18:55.179Z,12.37
2017-10-27T04:19:35.712Z,12.37
2017-10-27T04:20:16.249Z,12.35
2017-10-27T04:20:56.781Z,12.32
2017-10-27T04:21:37.318Z,12.24
2017-10-27T04:22:17.855Z,12.32
2017-10-27T04:22:58.376Z,12.27
2017-10-27T04:23:38.917Z,12.2
2017-10-27T04:24:19.452Z,12.29
2017-10-27T04:24:59.986Z,12.27
2017-10-27T04:25:40.512Z,12.27
2017-10-27T04:26:21.042Z,12.23
2017-10-27T04:27:01.642Z,12.27
2017-10-27T04:27:42.184Z,12.16
2017-10-27T04:28:22.722Z,12.12
2017-10-27T04:29:03.251Z,12.13
2017-10-27T04:29:43.788Z,12.13
2017-10-27T04:30:24.320Z,12.12
2017-10-27T04:31:04.860Z,12.14
2017-10-27T04:31:45.394Z,12.17
2017-10-27T04:32:25.933Z,12.13
2017-10-27T04:33:06.457Z,12.13
2017-10-27T04:33:46.995Z,12.16
2017-10-27T04:34:27.542Z,12.1
2017-10-27T04:35:08.074Z,12.16
2017-10-27T04:35:48.614Z,12.13
2017-10-27T04:36:29.147Z,12.12
2017-10-27T04:37:09.681Z,12.13
2017-10-27T04:37:50.218Z,12.27
2017-10-27T04:38:30.751Z,12.27
2017-10-27T04:39:11.278Z,12.23
2017-10-27T04:39:51.817Z,12.27
2017-10-27T04:40:32.351Z,12.2
2017-10-27T04:41:12.889Z,12.27
2017-10-27T04:41:53.431Z,12.27
2017-10-27T04:42:33.965Z,12.24
2017-10-27T04:43:14.494Z,12.28
2017-10-27T04:43:55.028Z,12.21
2017-10-27T04:44:35.572Z,12.24
2017-10-27T04:45:16.115Z,12.24
2017-10-27T04:45:56.648Z,12.21
2017-10-27T04:46:37.184Z,12.21
2017-10-27T04:47:17.755Z,12.24
2017-10-27T04:47:58.280Z,12.23
2017-10-27T04:48:38.812Z,12.2
2017-10-27T04:49:19.347Z,12.29
2017-10-27T04:49:59.885Z,12.24
2017-10-27T04:50:40.426Z,12.24
2017-10-27T04:51:20.956Z,12.27
2017-10-27T04:52:01.487Z,12.27
2017-10-27T04:52:42.020Z,12.28
2017-10-27T04:53:22.559Z,12.21
2017-10-27T04:54:03.085Z,12.24
2017-10-27T04:54:43.634Z,12.23
2017-10-27T04:55:24.167Z,12.27
2017-10-27T04:56:04.709Z,12.32
2017-10-27T04:56:45.249Z,12.32
2017-10-27T04:57:25.782Z,12.27
2017-10-27T04:58:06.309Z,12.27
2017-10-27T04:58:46.853Z,12.2
2017-10-27T04:59:27.387Z,12.27
2017-10-27T05:00:07.925Z,12.24
2017-10-27T05:00:48.459Z,12.32
2017-10-27T05:01:29.035Z,12.23
2017-10-27T05:02:09.571Z,12.21
2017-10-27T05:02:50.101Z,12.2
2017-10-27T05:03:30.631Z,12.23
2017-10-27T05:04:11.175Z,12.2
2017-10-27T05:04:51.711Z,12.21
2017-10-27T05:05:32.247Z,12.23
2017-10-27T05:06:12.785Z,12.24
2017-10-27T05:06:53.368Z,12.27
2017-10-27T05:07:33.893Z,12.27
2017-10-27T05:08:14.428Z,12.28
2017-10-27T05:08:54.966Z,12.31
2017-10-27T05:09:35.506Z,12.27
2017-10-27T05:10:16.039Z,12.24
2017-10-27T05:10:56.577Z,12.28
2017-10-27T05:11:37.109Z,12.28
2017-10-27T05:12:17.649Z,12.27
2017-10-27T05:12:58.185Z,12.29
2017-10-27T05:13:38.725Z,12.17
2017-10-27T05:14:19.263Z,12.17
2017-10-27T05:14:59.797Z,12.23
2017-10-27T05:15:40.334Z,12.19
2017-10-27T05:16:20.871Z,12.27
2017-10-27T05:17:01.410Z,12.19
2017-10-27T05:17:41.952Z,12.16
2017-10-27T05:18:22.486Z,12.23
2017-10-27T05:19:03.027Z,12.19
2017-10-27T05:19:43.564Z,12.14
2017-10-27T05:20:24.090Z,12.1
2017-10-27T05:21:04.624Z,12.13
2017-10-27T05:21:45.159Z,12.12
2017-10-27T05:22:25.700Z,12.12
2017-10-27T05:23:06.235Z,12.14
2017-10-27T05:23:46.771Z,12.16
2017-10-27T05:24:27.297Z,12.16
2017-10-27T05:25:07.842Z,12.12
2017-10-27T05:25:48.362Z,12.04
2017-10-27T05:26:28.899Z,12.17
2017-10-27T05:27:09.426Z,12.05
2017-10-27T05:27:49.960Z,12.05
2017-10-27T05:28:30.492Z,12.09
2017-10-27T05:29:11.029Z,12.04
2017-10-27T05:29:51.556Z,12.05
2017-10-27T05:30:32.093Z,12.02
2017-10-27T05:31:12.629Z,12.01
2017-10-27T05:31:53.164Z,12.07
2017-10-27T05:32:33.696Z,12.07
2017-10-27T05:33:14.233Z,11.99
2017-10-27T05:33:54.764Z,12.02
2017-10-27T05:34:35.300Z,11.95
2017-10-27T05:35:15.838Z,11.94
2017-10-27T05:35:56.377Z,11.94
2017-10-27T05:36:36.910Z,11.95
2017-10-27T05:37:17.450Z,11.98
2017-10-27T05:37:57.986Z,11.94
2017-10-27T05:38:38.526Z,11.85
2017-10-27T05:39:19.067Z,11.88
2017-10-27T05:39:59.605Z,11.91
2017-10-27T05:40:40.144Z,11.88
2017-10-27T05:41:20.804Z,11.91
2017-10-27T05:42:01.336Z,11.91
2017-10-27T05:42:41.890Z,11.96
2017-10-27T05:43:22.410Z,11.98
2017-10-27T05:44:02.944Z,11.91
2017-10-27T05:44:43.476Z,11.9
2017-10-27T05:45:24.011Z,11.96
2017-10-27T05:46:04.552Z,11.98
2017-10-27T05:46:45.082Z,11.91
2017-10-27T05:47:25.612Z,11.95
2017-10-27T05:48:06.146Z,11.94
2017-10-27T05:48:46.697Z,11.88
2017-10-27T05:49:27.228Z,11.91
2017-10-27T05:50:07.755Z,11.9
2017-10-27T05:50:48.288Z,11.94
2017-10-27T05:51:28.823Z,11.94
2017-10-27T05:52:09.362Z,11.86
2017-10-27T05:52:49.892Z,11.96
2017-10-27T05:53:30.430Z,11.88
2017-10-27T05:54:10.963Z,11.96
2017-10-27T05:54:51.498Z,11.96
2017-10-27T05:55:32.027Z,11.85
2017-10-27T05:56:12.567Z,11.94
2017-10-27T05:56:53.098Z,11.9
2017-10-27T05:57:33.635Z,11.94
2017-10-27T05:58:14.170Z,11.91
2017-10-27T05:58:54.700Z,11.9
2017-10-27T05:59:35.234Z,11.94
2017-10-27T06:00:15.767Z,11.95
2017-10-27T06:00:56.381Z,11.96
2017-10-27T06:01:36.915Z,11.96
2017-10-27T06:02:17.459Z,11.99
2017-10-27T06:02:57.989Z,11.96
2017-10-27T06:03:38.516Z,11.98
2017-10-27T06:04:19.055Z,11.91
2017-10-27T06:04:59.592Z,11.9
2017-10-27T06:05:40.129Z,11.95
2017-10-27T06:06:20.669Z,11.91
2017-10-27T06:07:01.202Z,11.88
2017-10-27T06:07:41.733Z,11.88
2017-10-27T06:08:22.264Z,11.91
2017-10-27T06:09:02.802Z,11.94
2017-10-27T06:09:43.366Z,11.91
2017-10-27T06:10:23.902Z,11.96
2017-10-27T06:11:04.440Z,11.85
2017-10-27T06:11:44.976Z,11.86
2017-10-27T06:12:25.514Z,11.86
2017-10-27T06:13:06.052Z,11.86
2017-10-27T06:13:46.588Z,11.85
2017-10-27T06:14:27.121Z,11.86
2017-10-27T06:15:07.657Z,11.95
2017-10-27T06:15:48.191Z,11.88
2017-10-27T06:16:28.727Z,11.86
2017-10-27T06:17:09.253Z,11.8
2017-10-27T06:17:49.785Z,11.76
2017-10-27T06:18:30.316Z,11.83
2017-10-27T06:19:10.836Z,11.79
2017-10-27T06:19:51.381Z,11.79
2017-10-27T06:20:31.921Z,11.76
2017-10-27T06:21:12.500Z,11.7
2017-10-27T06:21:53.033Z,11.82
2017-10-27T06:22:33.569Z,11.73
2017-10-27T06:23:14.093Z,11.76
2017-10-27T06:23:54.630Z,11.83
2017-10-27T06:24:35.157Z,11.72
2017-10-27T06:25:15.697Z,11.78
2017-10-27T06:25:56.227Z,11.78
2017-10-27T06:26:36.780Z,11.79
2017-10-27T06:27:17.309Z,11.75
2017-10-27T06:27:57.871Z,11.75
2017-10-27T06:28:38.404Z,11.76
2017-10-27T06:29:18.938Z,11.82
2017-10-27T06:29:59.476Z,11.76
2017-10-27T06:30:40.011Z,11.73
2017-10-27T06:31:20.546Z,11.79
2017-10-27T06:32:01.082Z,11.88
2017-10-27T06:32:41.611Z,11.85
2017-10-27T06:33:22.148Z,11.83
2017-10-27T06:34:02.682Z,11.83
2017-10-27T06:34:43.214Z,11.85
2017-10-27T06:35:23.753Z,11.91
2017-10-27T06:36:04.292Z,11.86
2017-10-27T06:36:44.826Z,11.91
2017-10-27T06:37:25.357Z,11.94
2017-10-27T06:38:05.875Z,11.9
2017-10-27T06:38:46.408Z,11.94
2017-10-27T06:39:26.938Z,11.9
2017-10-27T06:40:07.489Z,11.88
2017-10-27T06:40:48.020Z,11.95
2017-10-27T06:41:28.552Z,11.85
2017-10-27T06:42:09.121Z,11.9
2017-10-27T06:42:49.628Z,11.9
2017-10-27T06:43:30.223Z,11.82
2017-10-27T06:44:10.752Z,11.9
2017-10-27T06:44:51.285Z,11.85
2017-10-27T06:45:31.824Z,11.9
2017-10-27T06:46:12.364Z,11.85
2017-10-27T06:46:52.903Z,11.86
2017-10-27T06:47:33.441Z,11.88
2017-10-27T06:48:13.973Z,11.9
2017-10-27T06:48:54.510Z,11.86
2017-10-27T06:49:35.041Z,11.83
2017-10-27T06:50:15.579Z,11.85
2017-10-27T06:50:56.124Z,11.9
2017-10-27T06:51:36.660Z,11.9
2017-10-27T06:52:17.201Z,11.91
2017-10-27T06:52:57.733Z,11.9
2017-10-27T06:53:38.263Z,11.9
2017-10-27T06:54:18.798Z,11.95
2017-10-27T06:54:59.340Z,11.85
2017-10-27T06:55:39.865Z,11.91
2017-10-27T06:56:20.404Z,11.86
2017-10-27T06:57:00.939Z,11.86
2017-10-27T06:57:41.481Z,11.91
2017-10-27T06:58:22.015Z,11.9
2017-10-27T06:59:02.550Z,11.86
2017-10-27T06:59:43.087Z,11.9
2017-10-27T07:00:23.620Z,11.86
2017-10-27T07:01:04.175Z,11.85
2017-10-27T07:01:44.716Z,11.95
2017-10-27T07:02:25.249Z,11.95
2017-10-27T07:03:05.783Z,11.98
2017-10-27T07:03:46.317Z,11.94
2017-10-27T07:04:26.853Z,11.88
2017-10-27T07:05:07.388Z,11.85
2017-10-27T07:05:47.932Z,11.99
2017-10-27T07:06:28.465Z,11.98
2017-10-27T07:07:08.995Z,11.9
2017-10-27T07:07:49.536Z,11.96
2017-10-27T07:08:30.065Z,11.95
2017-10-27T07:09:10.599Z,11.91
2017-10-27T07:09:51.132Z,11.96
2017-10-27T07:10:31.664Z,11.94
2017-10-27T07:11:12.208Z,11.91
2017-10-27T07:11:52.729Z,11.96
2017-10-27T07:12:33.261Z,11.94
2017-10-27T07:13:13.791Z,12.01
2017-10-27T07:13:54.339Z,11.96
2017-10-27T07:14:34.878Z,11.96
2017-10-27T07:15:15.448Z,11.94
2017-10-27T07:15:55.983Z,11.85
2017-10-27T07:16:36.520Z,11.98
2017-10-27T07:17:17.053Z,11.98
2017-10-27T07:17:57.587Z,11.96
2017-10-27T07:18:38.127Z,11.96
2017-10-27T07:19:18.664Z,11.96
2017-10-27T07:19:59.205Z,11.94
2017-10-27T07:20:39.738Z,12.04
2017-10-27T07:21:20.276Z,12.05
2017-10-27T07:22:00.811Z,12.04
2017-10-27T07:22:41.342Z,12.07
2017-10-27T07:23:21.877Z,11.98
2017-10-27T07:24:02.410Z,12.09
2017-10-27T07:24:42.943Z,12.05
2017-10-27T07:25:23.485Z,12.01
2017-10-27T07:26:04.059Z,12.04
2017-10-27T07:26:44.598Z,12.04
2017-10-27T07:27:25.123Z,12.07
2017-10-27T07:28:05.654Z,12.04
2017-10-27T07:28:46.193Z,12.04
2017-10-27T07:29:26.724Z,12.09
2017-10-27T07:30:07.261Z,12.02
2017-10-27T07:30:47.802Z,12.02
2017-10-27T07:31:28.334Z,12.13
2017-10-27T07:32:08.869Z,12.1
2017-10-27T07:32:49.403Z,12.02
2017-10-27T07:33:29.946Z,12.02
2017-10-27T07:34:10.472Z,12.12
2017-10-27T07:34:51.009Z,12.02
2017-10-27T07:35:31.545Z,12.17
2017-10-27T07:36:12.079Z,12.02
2017-10-27T07:36:52.614Z,12.02
2017-10-27T07:37:33.150Z,12.19
2017-10-27T07:38:13.684Z,12.16
2017-10-27T07:38:54.221Z,12.14
2017-10-27T07:39:34.759Z,12.17
2017-10-27T07:40:15.295Z,12.16
2017-10-27T07:40:55.823Z,12.13
2017-10-27T07:41:36.357Z,12.17
2017-10-27T07:42:16.899Z,12.12
2017-10-27T07:42:57.433Z,12.16
2017-10-27T07:43:37.972Z,12.13
2017-10-27T07:44:18.508Z,12.14
2017-10-27T07:44:59.040Z,12.14
2017-10-27T07:45:39.570Z,12.19
2017-10-27T07:46:20.103Z,12.29
2017-10-27T07:47:00.638Z,12.19
2017-10-27T07:47:41.176Z,12.27
2017-10-27T07:48:21.710Z,12.23
2017-10-27T07:49:02.244Z,12.27
2017-10-27T07:49:42.773Z,12.23
2017-10-27T07:50:23.310Z,12.23
2017-10-27T07:51:03.845Z,12.27
2017-10-27T07:51:44.379Z,12.21
2017-10-27T07:52:24.911Z,12.23
2017-10-27T07:53:05.445Z,12.27
2017-10-27T07:53:45.986Z,12.23
2017-10-27T07:54:26.516Z,12.27
2017-10-27T07:55:07.046Z,12.24
2017-10-27T07:55:47.584Z,12.23
2017-10-27T07:56:28.121Z,12.27
2017-10-27T07:57:08.651Z,12.2
2017-10-27T07:57:49.186Z,12.27
2017-10-27T07:58:29.720Z,12.32
2017-10-27T07:59:10.259Z,12.31
2017-10-27T07:59:50.799Z,12.34
2017-10-27T08:00:31.377Z,12.31
2017-10-27T08:01:11.864Z,12.27
2017-10-27T08:01:52.399Z,12.34
2017-10-27T08:02:32.938Z,12.28
2017-10-27T08:03:13.465Z,12.34
2017-10-27T08:03:53.994Z,12.28
2017-10-27T08:04:34.525Z,12.2
2017-10-27T08:05:15.066Z,12.24
2017-10-27T08:05:55.603Z,12.29
2017-10-27T08:06:36.133Z,12.27
2017-10-27T08:07:16.663Z,12.21
2017-10-27T08:07:57.201Z,12.21
2017-10-27T08:08:37.744Z,12.21
2017-10-27T08:09:18.274Z,12.27
2017-10-27T08:09:58.812Z,12.34
2017-10-27T08:10:39.352Z,12.21
2017-10-27T08:11:19.880Z,12.21
2017-10-27T08:12:00.434Z,12.27
2017-10-27T08:12:40.950Z,12.35
2017-10-27T08:13:21.494Z,12.32
2017-10-27T08:14:02.023Z,12.31
2017-10-27T08:14:42.557Z,12.28
2017-10-27T08:15:23.099Z,12.23
2017-10-27T08:16:03.629Z,12.37
2017-10-27T08:16:44.161Z,12.31
2017-10-27T08:17:24.697Z,12.27
2017-10-27T08:18:05.236Z,12.35
2017-10-27T08:18:45.767Z,12.35
2017-10-27T08:19:26.305Z,12.35
2017-10-27T08:20:06.843Z,12.38
2017-10-27T08:20:47.375Z,12.37
2017-10-27T08:21:27.910Z,12.34
2017-10-27T08:22:08.452Z,12.31
2017-10-27T08:22:48.985Z,12.31
2017-10-27T08:23:29.523Z,12.32
2017-10-27T08:24:10.049Z,12.34
2017-10-27T08:24:50.581Z,12.38
2017-10-27T08:25:31.175Z,12.28
2017-10-27T08:26:11.709Z,12.37
2017-10-27T08:26:52.236Z,12.42
2017-10-27T08:27:32.784Z,12.39
2017-10-27T08:28:13.317Z,12.46
2017-10-27T08:28:53.848Z,12.46
2017-10-27T08:29:34.390Z,12.47
2017-10-27T08:30:14.923Z,12.47
2017-10-27T08:30:55.462Z,12.53
2017-10-27T08:31:35.985Z,12.59
2017-10-27T08:32:16.518Z,12.62
2017-10-27T08:32:57.048Z,12.64
2017-10-27T08:33:37.581Z,12.59
2017-10-27T08:34:18.117Z,12.67
2017-10-27T08:34:58.637Z,12.7
2017-10-27T08:35:39.173Z,12.71
2017-10-27T08:36:19.715Z,12.72
2017-10-27T08:37:00.252Z,12.71
2017-10-27T08:37:40.805Z,12.68
2017-10-27T08:38:21.342Z,12.67
2017-10-27T08:39:01.917Z,12.79
2017-10-27T08:39:42.444Z,12.78
2017-10-27T08:40:22.981Z,12.82
2017-10-27T08:41:03.521Z,12.79
2017-10-27T08:41:44.057Z,12.79
2017-10-27T08:42:24.578Z,12.83
2017-10-27T08:43:05.121Z,12.86